sensor_id;sensor_type;location;lat;lon;timestamp;P1;durP1;ratioP1;P2;durP2;ratioP2
80637;SDS011;69991;51.760;19.528;2023-10-31T00:01:32;12.50;;;6.40;;
80637;SDS011;69991;51.760;19.528;2023-10-31T00:04:01;12.60;;;6.80;;
80637;SDS011;69991;51.760;19.528;2023-10-31T00:06:31;11.30;;;6.30;;
80637;SDS011;69991;51.760;19.528;2023-10-31T00:09:00;11.80;;;6.40;;
80637;SDS011;69991;51.760;19.528;2023-10-31T00:11:29;13.20;;;6.20;;
80637;SDS011;69991;51.760;19.528;2023-10-31T00:13:58;13.00;;;6.20;;
80637;SDS011;69991;51.760;19.528;2023-10-31T00:16:27;10.80;;;6.70;;
80637;SDS011;69991;51.760;19.528;2023-10-31T00:18:58;10.00;;;5.70;;
80637;SDS011;69991;51.760;19.528;2023-10-31T00:21:27;11.70;;;6.40;;
80637;SDS011;69991;51.760;19.528;2023-10-31T00:23:57;10.90;;;6.50;;
80637;SDS011;69991;51.760;19.528;2023-10-31T00:26:28;11.40;;;6.90;;
80637;SDS011;69991;51.760;19.528;2023-10-31T00:28:57;11.10;;;6.10;;
80637;SDS011;69991;51.760;19.528;2023-10-31T00:31:26;9.00;;;5.50;;
80637;SDS011;69991;51.760;19.528;2023-10-31T00:33:55;11.30;;;6.00;;
80637;SDS011;69991;51.760;19.528;2023-10-31T00:36:26;12.30;;;6.00;;
80637;SDS011;69991;51.760;19.528;2023-10-31T00:38:55;11.10;;;6.00;;
80637;SDS011;69991;51.760;19.528;2023-10-31T00:41:24;9.50;;;5.50;;
80637;SDS011;69991;51.760;19.528;2023-10-31T00:43:53;11.40;;;5.50;;
80637;SDS011;69991;51.760;19.528;2023-10-31T00:46:24;12.40;;;5.70;;
80637;SDS011;69991;51.760;19.528;2023-10-31T00:48:54;11.80;;;5.80;;
80637;SDS011;69991;51.760;19.528;2023-10-31T00:51:23;10.90;;;5.60;;
80637;SDS011;69991;51.760;19.528;2023-10-31T00:53:52;12.40;;;6.20;;
80637;SDS011;69991;51.760;19.528;2023-10-31T00:56:21;9.30;;;6.00;;
80637;SDS011;69991;51.760;19.528;2023-10-31T00:58:50;11.50;;;6.00;;
80637;SDS011;69991;51.760;19.528;2023-10-31T01:01:20;10.00;;;5.00;;
80637;SDS011;69991;51.760;19.528;2023-10-31T01:03:49;10.60;;;5.90;;
80637;SDS011;69991;51.760;19.528;2023-10-31T01:06:18;12.00;;;5.50;;
80637;SDS011;69991;51.760;19.528;2023-10-31T01:08:47;9.50;;;5.40;;
80637;SDS011;69991;51.760;19.528;2023-10-31T01:11:16;10.10;;;5.40;;
80637;SDS011;69991;51.760;19.528;2023-10-31T01:13:45;11.10;;;5.50;;
80637;SDS011;69991;51.760;19.528;2023-10-31T01:16:14;11.10;;;5.40;;
80637;SDS011;69991;51.760;19.528;2023-10-31T01:18:46;10.80;;;5.80;;
80637;SDS011;69991;51.760;19.528;2023-10-31T01:21:15;11.50;;;5.20;;
80637;SDS011;69991;51.760;19.528;2023-10-31T01:23:44;12.60;;;5.40;;
80637;SDS011;69991;51.760;19.528;2023-10-31T01:26:13;11.20;;;4.60;;
80637;SDS011;69991;51.760;19.528;2023-10-31T01:28:42;8.50;;;4.50;;
80637;SDS011;69991;51.760;19.528;2023-10-31T01:31:11;8.90;;;4.60;;
80637;SDS011;69991;51.760;19.528;2023-10-31T01:33:40;8.60;;;4.60;;
80637;SDS011;69991;51.760;19.528;2023-10-31T01:36:09;10.20;;;4.90;;
80637;SDS011;69991;51.760;19.528;2023-10-31T01:38:41;9.20;;;5.20;;
80637;SDS011;69991;51.760;19.528;2023-10-31T01:41:09;9.20;;;5.10;;
80637;SDS011;69991;51.760;19.528;2023-10-31T01:43:38;7.90;;;4.10;;
80637;SDS011;69991;51.760;19.528;2023-10-31T01:46:08;8.80;;;4.80;;
80637;SDS011;69991;51.760;19.528;2023-10-31T01:48:37;8.10;;;4.60;;
80637;SDS011;69991;51.760;19.528;2023-10-31T01:51:06;8.80;;;4.90;;
80637;SDS011;69991;51.760;19.528;2023-10-31T01:53:36;10.30;;;4.80;;
80637;SDS011;69991;51.760;19.528;2023-10-31T01:56:05;9.00;;;4.60;;
80637;SDS011;69991;51.760;19.528;2023-10-31T01:58:36;10.00;;;4.20;;
80637;SDS011;69991;51.760;19.528;2023-10-31T02:01:05;9.70;;;4.80;;
80637;SDS011;69991;51.760;19.528;2023-10-31T02:03:36;8.40;;;4.40;;
80637;SDS011;69991;51.760;19.528;2023-10-31T02:06:05;8.60;;;4.20;;
80637;SDS011;69991;51.760;19.528;2023-10-31T02:08:34;7.70;;;4.30;;
80637;SDS011;69991;51.760;19.528;2023-10-31T02:11:03;8.10;;;4.00;;
80637;SDS011;69991;51.760;19.528;2023-10-31T02:13:34;9.10;;;4.30;;
80637;SDS011;69991;51.760;19.528;2023-10-31T02:16:03;9.60;;;4.10;;
80637;SDS011;69991;51.760;19.528;2023-10-31T02:18:33;8.10;;;4.10;;
80637;SDS011;69991;51.760;19.528;2023-10-31T02:21:02;8.60;;;4.10;;
80637;SDS011;69991;51.760;19.528;2023-10-31T02:23:31;8.70;;;3.80;;
80637;SDS011;69991;51.760;19.528;2023-10-31T02:26:00;14.60;;;4.40;;
80637;SDS011;69991;51.760;19.528;2023-10-31T02:28:29;8.60;;;3.80;;
80637;SDS011;69991;51.760;19.528;2023-10-31T02:30:59;6.60;;;3.30;;
80637;SDS011;69991;51.760;19.528;2023-10-31T02:33:29;9.10;;;4.20;;
80637;SDS011;69991;51.760;19.528;2023-10-31T02:35:58;7.30;;;3.80;;
80637;SDS011;69991;51.760;19.528;2023-10-31T02:38:27;7.10;;;3.90;;
80637;SDS011;69991;51.760;19.528;2023-10-31T02:40:56;8.50;;;3.80;;
80637;SDS011;69991;51.760;19.528;2023-10-31T02:43:25;8.00;;;4.40;;
80637;SDS011;69991;51.760;19.528;2023-10-31T02:45:54;7.10;;;3.40;;
80637;SDS011;69991;51.760;19.528;2023-10-31T02:48:23;8.00;;;3.60;;
80637;SDS011;69991;51.760;19.528;2023-10-31T02:50:53;7.30;;;4.30;;
80637;SDS011;69991;51.760;19.528;2023-10-31T02:53:22;7.70;;;3.50;;
80637;SDS011;69991;51.760;19.528;2023-10-31T02:55:51;8.20;;;4.10;;
80637;SDS011;69991;51.760;19.528;2023-10-31T02:58:20;6.10;;;3.50;;
80637;SDS011;69991;51.760;19.528;2023-10-31T03:00:49;7.50;;;3.50;;
80637;SDS011;69991;51.760;19.528;2023-10-31T03:03:17;8.10;;;4.00;;
80637;SDS011;69991;51.760;19.528;2023-10-31T03:05:47;6.90;;;3.30;;
80637;SDS011;69991;51.760;19.528;2023-10-31T03:08:15;6.80;;;3.10;;
80637;SDS011;69991;51.760;19.528;2023-10-31T03:10:49;9.10;;;3.50;;
80637;SDS011;69991;51.760;19.528;2023-10-31T03:13:21;7.50;;;3.20;;
80637;SDS011;69991;51.760;19.528;2023-10-31T03:15:50;8.80;;;3.30;;
80637;SDS011;69991;51.760;19.528;2023-10-31T03:18:19;7.00;;;3.60;;
80637;SDS011;69991;51.760;19.528;2023-10-31T03:20:48;8.80;;;3.40;;
80637;SDS011;69991;51.760;19.528;2023-10-31T03:23:17;9.30;;;3.50;;
80637;SDS011;69991;51.760;19.528;2023-10-31T03:25:46;7.20;;;3.60;;
80637;SDS011;69991;51.760;19.528;2023-10-31T03:28:17;8.60;;;3.00;;
80637;SDS011;69991;51.760;19.528;2023-10-31T03:30:48;6.20;;;3.50;;
80637;SDS011;69991;51.760;19.528;2023-10-31T03:33:17;8.00;;;2.90;;
80637;SDS011;69991;51.760;19.528;2023-10-31T03:35:46;9.70;;;3.40;;
80637;SDS011;69991;51.760;19.528;2023-10-31T03:38:16;6.40;;;3.20;;
80637;SDS011;69991;51.760;19.528;2023-10-31T03:40:45;6.80;;;3.30;;
80637;SDS011;69991;51.760;19.528;2023-10-31T03:43:14;9.70;;;3.60;;
80637;SDS011;69991;51.760;19.528;2023-10-31T03:45:43;6.00;;;3.30;;
80637;SDS011;69991;51.760;19.528;2023-10-31T03:48:12;6.10;;;2.90;;
80637;SDS011;69991;51.760;19.528;2023-10-31T03:50:41;5.80;;;2.90;;
80637;SDS011;69991;51.760;19.528;2023-10-31T03:53:10;6.50;;;2.80;;
80637;SDS011;69991;51.760;19.528;2023-10-31T03:55:39;6.70;;;3.20;;
80637;SDS011;69991;51.760;19.528;2023-10-31T03:58:08;5.70;;;2.90;;
80637;SDS011;69991;51.760;19.528;2023-10-31T04:00:38;6.70;;;2.70;;
80637;SDS011;69991;51.760;19.528;2023-10-31T04:03:08;7.90;;;3.00;;
80637;SDS011;69991;51.760;19.528;2023-10-31T04:05:37;7.60;;;3.20;;
80637;SDS011;69991;51.760;19.528;2023-10-31T04:08:06;8.90;;;3.60;;
80637;SDS011;69991;51.760;19.528;2023-10-31T04:10:35;5.70;;;3.00;;
80637;SDS011;69991;51.760;19.528;2023-10-31T04:13:04;8.00;;;3.80;;
80637;SDS011;69991;51.760;19.528;2023-10-31T04:15:33;8.10;;;2.90;;
80637;SDS011;69991;51.760;19.528;2023-10-31T04:18:03;6.40;;;2.60;;
80637;SDS011;69991;51.760;19.528;2023-10-31T04:20:32;6.30;;;2.40;;
80637;SDS011;69991;51.760;19.528;2023-10-31T04:23:01;7.80;;;2.80;;
80637;SDS011;69991;51.760;19.528;2023-10-31T04:25:31;9.30;;;4.90;;
80637;SDS011;69991;51.760;19.528;2023-10-31T04:28:00;5.30;;;2.20;;
80637;SDS011;69991;51.760;19.528;2023-10-31T04:30:29;4.70;;;2.10;;
80637;SDS011;69991;51.760;19.528;2023-10-31T04:32:58;6.00;;;2.30;;
80637;SDS011;69991;51.760;19.528;2023-10-31T04:35:27;5.80;;;2.40;;
80637;SDS011;69991;51.760;19.528;2023-10-31T04:37:56;5.70;;;2.50;;
80637;SDS011;69991;51.760;19.528;2023-10-31T04:40:25;6.00;;;2.50;;
80637;SDS011;69991;51.760;19.528;2023-10-31T04:42:54;5.50;;;2.50;;
80637;SDS011;69991;51.760;19.528;2023-10-31T04:45:24;5.50;;;2.40;;
80637;SDS011;69991;51.760;19.528;2023-10-31T04:47:53;6.10;;;3.00;;
80637;SDS011;69991;51.760;19.528;2023-10-31T04:50:23;7.20;;;2.80;;
80637;SDS011;69991;51.760;19.528;2023-10-31T04:52:52;7.90;;;2.80;;
80637;SDS011;69991;51.760;19.528;2023-10-31T04:55:21;5.20;;;2.20;;
80637;SDS011;69991;51.760;19.528;2023-10-31T04:57:50;5.20;;;2.50;;
80637;SDS011;69991;51.760;19.528;2023-10-31T05:00:19;6.00;;;2.60;;
80637;SDS011;69991;51.760;19.528;2023-10-31T05:02:48;4.60;;;2.20;;
80637;SDS011;69991;51.760;19.528;2023-10-31T05:05:17;5.10;;;2.20;;
80637;SDS011;69991;51.760;19.528;2023-10-31T05:07:46;5.50;;;2.90;;
80637;SDS011;69991;51.760;19.528;2023-10-31T05:10:15;6.00;;;2.50;;
80637;SDS011;69991;51.760;19.528;2023-10-31T05:12:44;6.60;;;2.40;;
80637;SDS011;69991;51.760;19.528;2023-10-31T05:15:13;5.60;;;2.00;;
80637;SDS011;69991;51.760;19.528;2023-10-31T05:17:42;6.30;;;2.40;;
80637;SDS011;69991;51.760;19.528;2023-10-31T05:20:11;4.80;;;2.20;;
80637;SDS011;69991;51.760;19.528;2023-10-31T05:22:41;7.30;;;2.20;;
80637;SDS011;69991;51.760;19.528;2023-10-31T05:25:10;5.10;;;2.00;;
80637;SDS011;69991;51.760;19.528;2023-10-31T05:27:39;4.40;;;2.20;;
80637;SDS011;69991;51.760;19.528;2023-10-31T05:30:08;5.60;;;1.80;;
80637;SDS011;69991;51.760;19.528;2023-10-31T05:32:38;4.30;;;1.60;;
80637;SDS011;69991;51.760;19.528;2023-10-31T05:35:07;4.00;;;1.70;;
80637;SDS011;69991;51.760;19.528;2023-10-31T05:37:37;4.90;;;2.00;;
80637;SDS011;69991;51.760;19.528;2023-10-31T05:40:07;4.70;;;1.90;;
80637;SDS011;69991;51.760;19.528;2023-10-31T05:42:36;5.80;;;1.90;;
80637;SDS011;69991;51.760;19.528;2023-10-31T05:45:05;4.50;;;1.80;;
80637;SDS011;69991;51.760;19.528;2023-10-31T05:47:34;4.90;;;1.60;;
80637;SDS011;69991;51.760;19.528;2023-10-31T05:50:03;4.20;;;1.90;;
80637;SDS011;69991;51.760;19.528;2023-10-31T05:52:34;5.30;;;1.90;;
80637;SDS011;69991;51.760;19.528;2023-10-31T05:55:03;4.00;;;2.30;;
80637;SDS011;69991;51.760;19.528;2023-10-31T05:57:32;5.00;;;2.30;;
80637;SDS011;69991;51.760;19.528;2023-10-31T06:00:01;5.40;;;2.30;;
80637;SDS011;69991;51.760;19.528;2023-10-31T06:02:31;5.00;;;2.10;;
80637;SDS011;69991;51.760;19.528;2023-10-31T06:05:00;6.10;;;2.40;;
80637;SDS011;69991;51.760;19.528;2023-10-31T06:07:32;5.60;;;2.20;;
80637;SDS011;69991;51.760;19.528;2023-10-31T06:10:01;5.00;;;1.80;;
80637;SDS011;69991;51.760;19.528;2023-10-31T06:12:30;3.60;;;1.90;;
80637;SDS011;69991;51.760;19.528;2023-10-31T06:14:58;4.80;;;2.10;;
80637;SDS011;69991;51.760;19.528;2023-10-31T06:17:27;4.10;;;1.70;;
80637;SDS011;69991;51.760;19.528;2023-10-31T06:19:56;3.70;;;1.60;;
80637;SDS011;69991;51.760;19.528;2023-10-31T06:22:26;4.90;;;2.00;;
80637;SDS011;69991;51.760;19.528;2023-10-31T06:24:55;6.00;;;2.10;;
80637;SDS011;69991;51.760;19.528;2023-10-31T06:27:27;5.80;;;2.00;;
80637;SDS011;69991;51.760;19.528;2023-10-31T06:29:55;7.00;;;2.20;;
80637;SDS011;69991;51.760;19.528;2023-10-31T06:32:44;4.60;;;2.10;;
80637;SDS011;69991;51.760;19.528;2023-10-31T06:35:13;6.00;;;2.70;;
80637;SDS011;69991;51.760;19.528;2023-10-31T06:37:42;4.80;;;2.00;;
80637;SDS011;69991;51.760;19.528;2023-10-31T06:40:11;4.80;;;2.20;;
80637;SDS011;69991;51.760;19.528;2023-10-31T06:42:41;3.50;;;1.80;;
80637;SDS011;69991;51.760;19.528;2023-10-31T06:45:10;5.20;;;2.10;;
80637;SDS011;69991;51.760;19.528;2023-10-31T06:47:38;5.00;;;2.00;;
80637;SDS011;69991;51.760;19.528;2023-10-31T06:50:07;5.60;;;1.90;;
80637;SDS011;69991;51.760;19.528;2023-10-31T06:52:37;4.20;;;2.00;;
80637;SDS011;69991;51.760;19.528;2023-10-31T06:55:06;5.70;;;1.90;;
80637;SDS011;69991;51.760;19.528;2023-10-31T06:57:35;6.20;;;2.10;;
80637;SDS011;69991;51.760;19.528;2023-10-31T07:00:04;4.10;;;2.00;;
80637;SDS011;69991;51.760;19.528;2023-10-31T07:02:38;6.20;;;2.10;;
80637;SDS011;69991;51.760;19.528;2023-10-31T07:05:07;6.70;;;3.00;;
80637;SDS011;69991;51.760;19.528;2023-10-31T07:07:36;7.10;;;2.60;;
80637;SDS011;69991;51.760;19.528;2023-10-31T07:10:05;6.00;;;2.40;;
80637;SDS011;69991;51.760;19.528;2023-10-31T07:12:35;4.90;;;2.10;;
80637;SDS011;69991;51.760;19.528;2023-10-31T07:15:04;7.20;;;2.50;;
80637;SDS011;69991;51.760;19.528;2023-10-31T07:17:33;6.60;;;2.30;;
80637;SDS011;69991;51.760;19.528;2023-10-31T07:20:03;8.10;;;2.20;;
80637;SDS011;69991;51.760;19.528;2023-10-31T07:22:32;5.60;;;2.20;;
80637;SDS011;69991;51.760;19.528;2023-10-31T07:25:02;4.80;;;1.90;;
80637;SDS011;69991;51.760;19.528;2023-10-31T07:27:32;6.90;;;2.30;;
80637;SDS011;69991;51.760;19.528;2023-10-31T07:30:04;6.80;;;2.50;;
80637;SDS011;69991;51.760;19.528;2023-10-31T07:32:34;7.50;;;2.70;;
80637;SDS011;69991;51.760;19.528;2023-10-31T07:35:03;5.30;;;2.60;;
80637;SDS011;69991;51.760;19.528;2023-10-31T07:37:33;7.40;;;2.60;;
80637;SDS011;69991;51.760;19.528;2023-10-31T07:40:04;7.70;;;2.70;;
80637;SDS011;69991;51.760;19.528;2023-10-31T07:42:34;8.30;;;2.70;;
80637;SDS011;69991;51.760;19.528;2023-10-31T07:45:03;6.60;;;2.50;;
80637;SDS011;69991;51.760;19.528;2023-10-31T07:47:32;7.90;;;2.60;;
80637;SDS011;69991;51.760;19.528;2023-10-31T07:50:01;7.90;;;3.20;;
80637;SDS011;69991;51.760;19.528;2023-10-31T07:52:31;6.40;;;2.30;;
80637;SDS011;69991;51.760;19.528;2023-10-31T07:55:00;7.40;;;2.70;;
80637;SDS011;69991;51.760;19.528;2023-10-31T07:57:29;4.70;;;2.20;;
80637;SDS011;69991;51.760;19.528;2023-10-31T07:59:57;4.60;;;1.90;;
80637;SDS011;69991;51.760;19.528;2023-10-31T08:02:26;5.50;;;2.50;;
80637;SDS011;69991;51.760;19.528;2023-10-31T08:04:56;6.60;;;2.30;;
80637;SDS011;69991;51.760;19.528;2023-10-31T08:07:24;5.00;;;2.00;;
80637;SDS011;69991;51.760;19.528;2023-10-31T08:09:58;6.80;;;1.70;;
80637;SDS011;69991;51.760;19.528;2023-10-31T08:12:27;5.70;;;2.10;;
80637;SDS011;69991;51.760;19.528;2023-10-31T08:14:56;5.60;;;2.60;;
80637;SDS011;69991;51.760;19.528;2023-10-31T08:17:27;6.30;;;2.20;;
80637;SDS011;69991;51.760;19.528;2023-10-31T08:19:56;5.00;;;2.00;;
80637;SDS011;69991;51.760;19.528;2023-10-31T08:22:25;4.90;;;1.80;;
80637;SDS011;69991;51.760;19.528;2023-10-31T08:24:54;7.10;;;1.90;;
80637;SDS011;69991;51.760;19.528;2023-10-31T08:27:23;5.40;;;2.00;;
80637;SDS011;69991;51.760;19.528;2023-10-31T08:29:52;4.70;;;1.50;;
80637;SDS011;69991;51.760;19.528;2023-10-31T08:32:21;4.00;;;1.50;;
80637;SDS011;69991;51.760;19.528;2023-10-31T08:34:53;5.90;;;2.00;;
80637;SDS011;69991;51.760;19.528;2023-10-31T08:37:22;5.00;;;1.60;;
80637;SDS011;69991;51.760;19.528;2023-10-31T08:39:51;6.20;;;2.10;;
80637;SDS011;69991;51.760;19.528;2023-10-31T08:42:20;4.80;;;1.90;;
80637;SDS011;69991;51.760;19.528;2023-10-31T08:44:49;4.40;;;1.70;;
80637;SDS011;69991;51.760;19.528;2023-10-31T08:47:18;4.40;;;1.70;;
80637;SDS011;69991;51.760;19.528;2023-10-31T08:49:47;5.80;;;1.70;;
80637;SDS011;69991;51.760;19.528;2023-10-31T08:52:16;5.70;;;1.60;;
80637;SDS011;69991;51.760;19.528;2023-10-31T08:54:46;4.50;;;1.50;;
80637;SDS011;69991;51.760;19.528;2023-10-31T08:57:15;5.20;;;1.80;;
80637;SDS011;69991;51.760;19.528;2023-10-31T08:59:44;4.70;;;1.80;;
80637;SDS011;69991;51.760;19.528;2023-10-31T09:02:13;3.90;;;1.60;;
80637;SDS011;69991;51.760;19.528;2023-10-31T09:04:42;3.70;;;1.70;;
80637;SDS011;69991;51.760;19.528;2023-10-31T09:07:11;5.00;;;1.80;;
80637;SDS011;69991;51.760;19.528;2023-10-31T09:09:39;5.30;;;1.80;;
80637;SDS011;69991;51.760;19.528;2023-10-31T09:12:08;3.60;;;1.70;;
80637;SDS011;69991;51.760;19.528;2023-10-31T09:14:38;4.60;;;1.80;;
80637;SDS011;69991;51.760;19.528;2023-10-31T09:17:07;4.70;;;2.10;;
80637;SDS011;69991;51.760;19.528;2023-10-31T09:19:36;4.70;;;1.70;;
80637;SDS011;69991;51.760;19.528;2023-10-31T09:22:05;4.60;;;1.60;;
80637;SDS011;69991;51.760;19.528;2023-10-31T09:24:34;5.30;;;2.00;;
80637;SDS011;69991;51.760;19.528;2023-10-31T09:27:03;4.00;;;1.70;;
80637;SDS011;69991;51.760;19.528;2023-10-31T09:29:35;3.90;;;1.50;;
80637;SDS011;69991;51.760;19.528;2023-10-31T09:32:05;4.30;;;1.70;;
80637;SDS011;69991;51.760;19.528;2023-10-31T09:34:36;6.10;;;2.20;;
80637;SDS011;69991;51.760;19.528;2023-10-31T09:37:05;5.50;;;1.80;;
80637;SDS011;69991;51.760;19.528;2023-10-31T09:39:34;8.60;;;2.00;;
80637;SDS011;69991;51.760;19.528;2023-10-31T09:42:11;5.40;;;1.90;;
80637;SDS011;69991;51.760;19.528;2023-10-31T09:44:40;4.60;;;1.70;;
80637;SDS011;69991;51.760;19.528;2023-10-31T09:47:10;5.70;;;1.80;;
80637;SDS011;69991;51.760;19.528;2023-10-31T09:49:39;6.00;;;2.00;;
80637;SDS011;69991;51.760;19.528;2023-10-31T09:52:08;4.10;;;1.70;;
80637;SDS011;69991;51.760;19.528;2023-10-31T09:54:38;4.90;;;1.90;;
80637;SDS011;69991;51.760;19.528;2023-10-31T09:57:10;5.50;;;1.70;;
80637;SDS011;69991;51.760;19.528;2023-10-31T09:59:40;5.70;;;2.00;;
80637;SDS011;69991;51.760;19.528;2023-10-31T10:02:09;5.80;;;2.10;;
80637;SDS011;69991;51.760;19.528;2023-10-31T10:04:38;3.40;;;1.80;;
80637;SDS011;69991;51.760;19.528;2023-10-31T10:07:08;3.90;;;1.80;;
80637;SDS011;69991;51.760;19.528;2023-10-31T10:09:42;5.60;;;2.30;;
80637;SDS011;69991;51.760;19.528;2023-10-31T10:12:13;5.80;;;2.10;;
80637;SDS011;69991;51.760;19.528;2023-10-31T10:14:44;5.40;;;2.40;;
80637;SDS011;69991;51.760;19.528;2023-10-31T10:19:44;3.90;;;1.70;;
80637;SDS011;69991;51.760;19.528;2023-10-31T10:22:13;4.20;;;1.80;;
80637;SDS011;69991;51.760;19.528;2023-10-31T10:24:43;4.80;;;1.90;;
80637;SDS011;69991;51.760;19.528;2023-10-31T10:27:12;5.60;;;1.90;;
80637;SDS011;69991;51.760;19.528;2023-10-31T10:29:45;5.40;;;2.00;;
80637;SDS011;69991;51.760;19.528;2023-10-31T10:32:14;6.50;;;1.60;;
80637;SDS011;69991;51.760;19.528;2023-10-31T10:34:43;4.00;;;1.80;;
80637;SDS011;69991;51.760;19.528;2023-10-31T10:37:12;5.20;;;1.70;;
80637;SDS011;69991;51.760;19.528;2023-10-31T10:39:41;4.10;;;1.60;;
80637;SDS011;69991;51.760;19.528;2023-10-31T10:42:14;4.60;;;1.60;;
80637;SDS011;69991;51.760;19.528;2023-10-31T10:44:47;4.30;;;1.70;;
80637;SDS011;69991;51.760;19.528;2023-10-31T10:47:18;3.10;;;1.40;;
80637;SDS011;69991;51.760;19.528;2023-10-31T10:49:48;3.90;;;1.80;;
80637;SDS011;69991;51.760;19.528;2023-10-31T10:52:22;3.80;;;1.40;;
80637;SDS011;69991;51.760;19.528;2023-10-31T10:54:58;4.30;;;1.80;;
80637;SDS011;69991;51.760;19.528;2023-10-31T10:58:18;3.60;;;1.40;;
80637;SDS011;69991;51.760;19.528;2023-10-31T11:00:32;3.90;;;1.30;;
80637;SDS011;69991;51.760;19.528;2023-10-31T11:03:03;3.60;;;1.50;;
80637;SDS011;69991;51.760;19.528;2023-10-31T11:05:33;3.50;;;1.70;;
80637;SDS011;69991;51.760;19.528;2023-10-31T11:08:02;4.30;;;1.60;;
80637;SDS011;69991;51.760;19.528;2023-10-31T11:10:34;4.70;;;2.30;;
80637;SDS011;69991;51.760;19.528;2023-10-31T11:13:04;3.50;;;1.50;;
80637;SDS011;69991;51.760;19.528;2023-10-31T11:15:33;4.60;;;1.40;;
80637;SDS011;69991;51.760;19.528;2023-10-31T11:18:02;3.30;;;1.50;;
80637;SDS011;69991;51.760;19.528;2023-10-31T11:20:32;3.40;;;1.20;;
80637;SDS011;69991;51.760;19.528;2023-10-31T11:23:05;4.20;;;1.50;;
80637;SDS011;69991;51.760;19.528;2023-10-31T11:25:42;4.60;;;1.40;;
80637;SDS011;69991;51.760;19.528;2023-10-31T11:28:13;3.90;;;1.50;;
80637;SDS011;69991;51.760;19.528;2023-10-31T11:30:45;2.90;;;1.30;;
80637;SDS011;69991;51.760;19.528;2023-10-31T11:33:20;3.60;;;1.40;;
80637;SDS011;69991;51.760;19.528;2023-10-31T11:35:51;4.90;;;2.10;;
80637;SDS011;69991;51.760;19.528;2023-10-31T11:38:27;4.10;;;1.90;;
80637;SDS011;69991;51.760;19.528;2023-10-31T11:41:02;4.50;;;1.60;;
80637;SDS011;69991;51.760;19.528;2023-10-31T11:46:20;3.30;;;1.70;;
80637;SDS011;69991;51.760;19.528;2023-10-31T11:49:00;4.00;;;1.80;;
80637;SDS011;69991;51.760;19.528;2023-10-31T11:51:31;5.00;;;1.60;;
80637;SDS011;69991;51.760;19.528;2023-10-31T11:54:01;4.50;;;1.70;;
80637;SDS011;69991;51.760;19.528;2023-10-31T11:56:30;3.70;;;1.50;;
80637;SDS011;69991;51.760;19.528;2023-10-31T11:59:03;3.10;;;1.30;;
80637;SDS011;69991;51.760;19.528;2023-10-31T12:01:33;3.80;;;1.60;;
80637;SDS011;69991;51.760;19.528;2023-10-31T12:04:02;3.60;;;1.40;;
80637;SDS011;69991;51.760;19.528;2023-10-31T12:06:36;4.60;;;1.60;;
80637;SDS011;69991;51.760;19.528;2023-10-31T12:09:05;5.40;;;1.70;;
80637;SDS011;69991;51.760;19.528;2023-10-31T12:11:37;5.70;;;1.80;;
80637;SDS011;69991;51.760;19.528;2023-10-31T12:14:17;4.20;;;2.20;;
80637;SDS011;69991;51.760;19.528;2023-10-31T12:16:47;4.90;;;2.10;;
80637;SDS011;69991;51.760;19.528;2023-10-31T12:19:17;4.50;;;1.50;;
80637;SDS011;69991;51.760;19.528;2023-10-31T12:21:49;4.90;;;1.90;;
80637;SDS011;69991;51.760;19.528;2023-10-31T12:24:19;5.50;;;1.70;;
80637;SDS011;69991;51.760;19.528;2023-10-31T12:26:48;5.20;;;1.70;;
80637;SDS011;69991;51.760;19.528;2023-10-31T12:29:19;3.30;;;1.50;;
80637;SDS011;69991;51.760;19.528;2023-10-31T12:31:52;4.10;;;1.90;;
80637;SDS011;69991;51.760;19.528;2023-10-31T12:34:30;3.90;;;1.60;;
80637;SDS011;69991;51.760;19.528;2023-10-31T12:37:03;4.20;;;1.50;;
80637;SDS011;69991;51.760;19.528;2023-10-31T12:39:32;3.80;;;1.70;;
80637;SDS011;69991;51.760;19.528;2023-10-31T12:42:02;3.70;;;1.60;;
80637;SDS011;69991;51.760;19.528;2023-10-31T12:44:31;3.60;;;1.50;;
80637;SDS011;69991;51.760;19.528;2023-10-31T12:47:01;4.20;;;1.80;;
80637;SDS011;69991;51.760;19.528;2023-10-31T12:49:30;3.50;;;1.50;;
80637;SDS011;69991;51.760;19.528;2023-10-31T12:52:00;4.10;;;1.70;;
80637;SDS011;69991;51.760;19.528;2023-10-31T12:54:30;4.10;;;1.80;;
80637;SDS011;69991;51.760;19.528;2023-10-31T12:57:04;5.50;;;1.90;;
80637;SDS011;69991;51.760;19.528;2023-10-31T12:59:36;3.80;;;1.60;;
80637;SDS011;69991;51.760;19.528;2023-10-31T13:02:09;6.30;;;2.10;;
80637;SDS011;69991;51.760;19.528;2023-10-31T13:04:39;3.90;;;1.70;;
80637;SDS011;69991;51.760;19.528;2023-10-31T13:07:09;4.30;;;2.10;;
80637;SDS011;69991;51.760;19.528;2023-10-31T13:09:38;4.90;;;2.10;;
80637;SDS011;69991;51.760;19.528;2023-10-31T13:12:08;4.00;;;1.80;;
80637;SDS011;69991;51.760;19.528;2023-10-31T13:14:39;3.60;;;1.40;;
80637;SDS011;69991;51.760;19.528;2023-10-31T13:17:08;4.60;;;2.00;;
80637;SDS011;69991;51.760;19.528;2023-10-31T13:19:38;3.90;;;1.40;;
80637;SDS011;69991;51.760;19.528;2023-10-31T13:22:07;5.00;;;2.00;;
80637;SDS011;69991;51.760;19.528;2023-10-31T13:24:36;4.20;;;1.40;;
80637;SDS011;69991;51.760;19.528;2023-10-31T13:27:05;3.00;;;1.30;;
80637;SDS011;69991;51.760;19.528;2023-10-31T13:29:44;2.90;;;1.10;;
80637;SDS011;69991;51.760;19.528;2023-10-31T13:32:14;3.00;;;1.10;;
80637;SDS011;69991;51.760;19.528;2023-10-31T13:34:45;2.90;;;1.00;;
80637;SDS011;69991;51.760;19.528;2023-10-31T13:37:14;4.20;;;1.20;;
80637;SDS011;69991;51.760;19.528;2023-10-31T13:39:43;2.80;;;1.10;;
80637;SDS011;69991;51.760;19.528;2023-10-31T13:42:13;3.00;;;1.20;;
80637;SDS011;69991;51.760;19.528;2023-10-31T13:44:43;3.10;;;1.20;;
80637;SDS011;69991;51.760;19.528;2023-10-31T13:47:12;3.30;;;1.30;;
80637;SDS011;69991;51.760;19.528;2023-10-31T13:49:42;2.20;;;0.90;;
80637;SDS011;69991;51.760;19.528;2023-10-31T13:52:11;2.90;;;1.10;;
80637;SDS011;69991;51.760;19.528;2023-10-31T13:54:43;3.20;;;1.20;;
80637;SDS011;69991;51.760;19.528;2023-10-31T13:57:12;3.40;;;1.10;;
80637;SDS011;69991;51.760;19.528;2023-10-31T13:59:41;3.60;;;1.20;;
80637;SDS011;69991;51.760;19.528;2023-10-31T14:02:10;3.20;;;1.10;;
80637;SDS011;69991;51.760;19.528;2023-10-31T14:04:39;2.90;;;1.20;;
80637;SDS011;69991;51.760;19.528;2023-10-31T14:07:09;3.80;;;1.50;;
80637;SDS011;69991;51.760;19.528;2023-10-31T14:09:38;3.90;;;1.50;;
80637;SDS011;69991;51.760;19.528;2023-10-31T14:12:08;4.30;;;1.70;;
80637;SDS011;69991;51.760;19.528;2023-10-31T14:14:37;3.60;;;1.50;;
80637;SDS011;69991;51.760;19.528;2023-10-31T14:17:06;4.50;;;1.70;;
80637;SDS011;69991;51.760;19.528;2023-10-31T14:19:35;3.50;;;1.50;;
80637;SDS011;69991;51.760;19.528;2023-10-31T14:22:04;4.50;;;1.60;;
80637;SDS011;69991;51.760;19.528;2023-10-31T14:24:35;7.90;;;2.60;;
80637;SDS011;69991;51.760;19.528;2023-10-31T14:27:04;8.70;;;3.10;;
80637;SDS011;69991;51.760;19.528;2023-10-31T14:29:33;3.70;;;1.20;;
80637;SDS011;69991;51.760;19.528;2023-10-31T14:32:06;4.20;;;1.70;;
80637;SDS011;69991;51.760;19.528;2023-10-31T14:34:38;3.20;;;1.10;;
80637;SDS011;69991;51.760;19.528;2023-10-31T14:37:07;4.40;;;1.30;;
80637;SDS011;69991;51.760;19.528;2023-10-31T14:39:36;5.20;;;1.00;;
80637;SDS011;69991;51.760;19.528;2023-10-31T14:42:05;3.70;;;1.40;;
80637;SDS011;69991;51.760;19.528;2023-10-31T14:44:35;3.00;;;1.10;;
80637;SDS011;69991;51.760;19.528;2023-10-31T14:47:04;4.60;;;1.50;;
80637;SDS011;69991;51.760;19.528;2023-10-31T14:49:33;4.90;;;2.00;;
80637;SDS011;69991;51.760;19.528;2023-10-31T14:52:02;5.30;;;1.40;;
80637;SDS011;69991;51.760;19.528;2023-10-31T14:54:33;5.70;;;1.60;;